sensor_id;sensor_type;location;lat;lon;timestamp;P1;durP1;ratioP1;P2;durP2;ratioP2
30729;SDS011;17476;48.458;7.928;2023-03-01T00:02:05;0.30;;;0.30;;
30729;SDS011;17476;48.458;7.928;2023-03-01T00:04:31;0.40;;;0.40;;
30729;SDS011;17476;48.458;7.928;2023-03-01T00:06:57;0.40;;;0.40;;
30729;SDS011;17476;48.458;7.928;2023-03-01T00:09:23;0.40;;;0.40;;
30729;SDS011;17476;48.458;7.928;2023-03-01T00:11:49;0.40;;;0.40;;
30729;SDS011;17476;48.458;7.928;2023-03-01T00:14:15;0.40;;;0.40;;
30729;SDS011;17476;48.458;7.928;2023-03-01T00:16:42;0.30;;;0.30;;
30729;SDS011;17476;48.458;7.928;2023-03-01T00:19:11;0.30;;;0.30;;
30729;SDS011;17476;48.458;7.928;2023-03-01T00:21:44;0.50;;;0.50;;
30729;SDS011;17476;48.458;7.928;2023-03-01T00:24:10;0.40;;;0.40;;
30729;SDS011;17476;48.458;7.928;2023-03-01T00:26:37;0.40;;;0.40;;
30729;SDS011;17476;48.458;7.928;2023-03-01T00:29:03;0.33;;;0.33;;
30729;SDS011;17476;48.458;7.928;2023-03-01T00:31:30;0.40;;;0.40;;
30729;SDS011;17476;48.458;7.928;2023-03-01T00:33:59;0.40;;;0.40;;
30729;SDS011;17476;48.458;7.928;2023-03-01T00:36:28;0.23;;;0.23;;
30729;SDS011;17476;48.458;7.928;2023-03-01T00:38:57;0.30;;;0.30;;
30729;SDS011;17476;48.458;7.928;2023-03-01T00:41:23;0.40;;;0.40;;
30729;SDS011;17476;48.458;7.928;2023-03-01T00:43:51;0.40;;;0.40;;
30729;SDS011;17476;48.458;7.928;2023-03-01T00:46:19;0.30;;;0.30;;
30729;SDS011;17476;48.458;7.928;2023-03-01T00:48:50;0.30;;;0.30;;
30729;SDS011;17476;48.458;7.928;2023-03-01T00:51:18;0.30;;;0.30;;
30729;SDS011;17476;48.458;7.928;2023-03-01T00:53:51;0.30;;;0.30;;
30729;SDS011;17476;48.458;7.928;2023-03-01T00:56:19;0.37;;;0.37;;
30729;SDS011;17476;48.458;7.928;2023-03-01T00:58:46;0.30;;;0.30;;
30729;SDS011;17476;48.458;7.928;2023-03-01T01:01:15;0.40;;;0.40;;
30729;SDS011;17476;48.458;7.928;2023-03-01T01:06:16;0.40;;;0.40;;
30729;SDS011;17476;48.458;7.928;2023-03-01T01:08:56;0.30;;;0.30;;
30729;SDS011;17476;48.458;7.928;2023-03-01T01:11:23;0.40;;;0.40;;
30729;SDS011;17476;48.458;7.928;2023-03-01T01:13:52;0.40;;;0.40;;
30729;SDS011;17476;48.458;7.928;2023-03-01T01:16:19;0.40;;;0.40;;
30729;SDS011;17476;48.458;7.928;2023-03-01T01:18:47;0.40;;;0.40;;
30729;SDS011;17476;48.458;7.928;2023-03-01T01:21:14;0.30;;;0.30;;
30729;SDS011;17476;48.458;7.928;2023-03-01T01:23:43;0.47;;;0.47;;
30729;SDS011;17476;48.458;7.928;2023-03-01T01:26:12;0.37;;;0.37;;
30729;SDS011;17476;48.458;7.928;2023-03-01T01:28:45;0.40;;;0.40;;
30729;SDS011;17476;48.458;7.928;2023-03-01T01:31:11;0.40;;;0.40;;
30729;SDS011;17476;48.458;7.928;2023-03-01T01:33:37;0.40;;;0.40;;
30729;SDS011;17476;48.458;7.928;2023-03-01T01:36:04;0.43;;;0.43;;
30729;SDS011;17476;48.458;7.928;2023-03-01T01:38:32;0.40;;;0.40;;
30729;SDS011;17476;48.458;7.928;2023-03-01T01:40:58;0.30;;;0.30;;
30729;SDS011;17476;48.458;7.928;2023-03-01T01:43:27;0.40;;;0.40;;
30729;SDS011;17476;48.458;7.928;2023-03-01T01:51:31;0.47;;;0.47;;
30729;SDS011;17476;48.458;7.928;2023-03-01T01:54:10;0.37;;;0.37;;
30729;SDS011;17476;48.458;7.928;2023-03-01T01:56:44;0.40;;;0.40;;
30729;SDS011;17476;48.458;7.928;2023-03-01T01:59:15;0.40;;;0.40;;
30729;SDS011;17476;48.458;7.928;2023-03-01T02:01:41;0.40;;;0.40;;
30729;SDS011;17476;48.458;7.928;2023-03-01T02:04:08;0.40;;;0.40;;
30729;SDS011;17476;48.458;7.928;2023-03-01T02:06:37;0.33;;;0.33;;
30729;SDS011;17476;48.458;7.928;2023-03-01T02:09:12;0.40;;;0.40;;
30729;SDS011;17476;48.458;7.928;2023-03-01T02:11:41;0.30;;;0.30;;
30729;SDS011;17476;48.458;7.928;2023-03-01T02:14:08;0.40;;;0.40;;
30729;SDS011;17476;48.458;7.928;2023-03-01T02:16:34;0.37;;;0.37;;
30729;SDS011;17476;48.458;7.928;2023-03-01T02:19:00;0.40;;;0.40;;
30729;SDS011;17476;48.458;7.928;2023-03-01T02:21:34;0.40;;;0.40;;
30729;SDS011;17476;48.458;7.928;2023-03-01T02:25:12;0.40;;;0.40;;
30729;SDS011;17476;48.458;7.928;2023-03-01T02:30:30;0.40;;;0.40;;
30729;SDS011;17476;48.458;7.928;2023-03-01T02:32:57;0.30;;;0.30;;
30729;SDS011;17476;48.458;7.928;2023-03-01T02:35:34;0.40;;;0.40;;
30729;SDS011;17476;48.458;7.928;2023-03-01T02:38:06;0.40;;;0.40;;
30729;SDS011;17476;48.458;7.928;2023-03-01T02:40:34;0.30;;;0.30;;
30729;SDS011;17476;48.458;7.928;2023-03-01T02:43:03;0.30;;;0.30;;
30729;SDS011;17476;48.458;7.928;2023-03-01T02:45:33;0.20;;;0.20;;
30729;SDS011;17476;48.458;7.928;2023-03-01T02:47:59;0.40;;;0.40;;
30729;SDS011;17476;48.458;7.928;2023-03-01T02:55:47;0.40;;;0.40;;
30729;SDS011;17476;48.458;7.928;2023-03-01T02:58:13;0.30;;;0.30;;
30729;SDS011;17476;48.458;7.928;2023-03-01T03:00:40;0.30;;;0.30;;
30729;SDS011;17476;48.458;7.928;2023-03-01T03:03:15;0.30;;;0.30;;
30729;SDS011;17476;48.458;7.928;2023-03-01T03:05:44;0.33;;;0.33;;
30729;SDS011;17476;48.458;7.928;2023-03-01T03:08:10;0.33;;;0.33;;
30729;SDS011;17476;48.458;7.928;2023-03-01T03:10:37;0.37;;;0.37;;
30729;SDS011;17476;48.458;7.928;2023-03-01T03:13:11;0.30;;;0.30;;
30729;SDS011;17476;48.458;7.928;2023-03-01T03:15:39;0.33;;;0.33;;
30729;SDS011;17476;48.458;7.928;2023-03-01T03:18:08;0.40;;;0.40;;
30729;SDS011;17476;48.458;7.928;2023-03-01T03:20:40;0.40;;;0.40;;
30729;SDS011;17476;48.458;7.928;2023-03-01T03:23:07;0.40;;;0.40;;
30729;SDS011;17476;48.458;7.928;2023-03-01T03:25:34;0.43;;;0.43;;
30729;SDS011;17476;48.458;7.928;2023-03-01T03:28:03;0.40;;;0.40;;
30729;SDS011;17476;48.458;7.928;2023-03-01T03:30:35;0.30;;;0.30;;
30729;SDS011;17476;48.458;7.928;2023-03-01T03:33:06;0.50;;;0.50;;
30729;SDS011;17476;48.458;7.928;2023-03-01T03:35:40;0.30;;;0.30;;
30729;SDS011;17476;48.458;7.928;2023-03-01T03:38:11;0.40;;;0.40;;
30729;SDS011;17476;48.458;7.928;2023-03-01T03:40:47;0.40;;;0.40;;
30729;SDS011;17476;48.458;7.928;2023-03-01T03:43:26;0.30;;;0.30;;
30729;SDS011;17476;48.458;7.928;2023-03-01T03:45:52;0.40;;;0.40;;
30729;SDS011;17476;48.458;7.928;2023-03-01T03:48:19;0.30;;;0.30;;
30729;SDS011;17476;48.458;7.928;2023-03-01T03:50:49;0.30;;;0.30;;
30729;SDS011;17476;48.458;7.928;2023-03-01T03:53:20;0.30;;;0.30;;
30729;SDS011;17476;48.458;7.928;2023-03-01T03:55:49;0.30;;;0.30;;
30729;SDS011;17476;48.458;7.928;2023-03-01T03:58:16;0.40;;;0.40;;
30729;SDS011;17476;48.458;7.928;2023-03-01T04:00:45;0.40;;;0.40;;
30729;SDS011;17476;48.458;7.928;2023-03-01T04:03:14;0.43;;;0.43;;
30729;SDS011;17476;48.458;7.928;2023-03-01T04:05:41;0.40;;;0.40;;
30729;SDS011;17476;48.458;7.928;2023-03-01T04:08:07;0.40;;;0.40;;
30729;SDS011;17476;48.458;7.928;2023-03-01T04:10:35;0.40;;;0.40;;
30729;SDS011;17476;48.458;7.928;2023-03-01T04:13:09;0.30;;;0.30;;
30729;SDS011;17476;48.458;7.928;2023-03-01T04:15:39;0.23;;;0.23;;
30729;SDS011;17476;48.458;7.928;2023-03-01T04:18:06;0.30;;;0.30;;
30729;SDS011;17476;48.458;7.928;2023-03-01T04:20:33;0.30;;;0.30;;
30729;SDS011;17476;48.458;7.928;2023-03-01T04:23:01;0.30;;;0.30;;
30729;SDS011;17476;48.458;7.928;2023-03-01T04:25:54;0.37;;;0.37;;
30729;SDS011;17476;48.458;7.928;2023-03-01T04:28:23;0.50;;;0.50;;
30729;SDS011;17476;48.458;7.928;2023-03-01T04:30:55;0.40;;;0.40;;
30729;SDS011;17476;48.458;7.928;2023-03-01T04:33:23;0.30;;;0.30;;
30729;SDS011;17476;48.458;7.928;2023-03-01T04:35:50;0.40;;;0.40;;
30729;SDS011;17476;48.458;7.928;2023-03-01T04:38:19;0.40;;;0.40;;
30729;SDS011;17476;48.458;7.928;2023-03-01T04:40:46;0.40;;;0.40;;
30729;SDS011;17476;48.458;7.928;2023-03-01T04:43:12;0.30;;;0.30;;
30729;SDS011;17476;48.458;7.928;2023-03-01T04:45:39;0.40;;;0.40;;
30729;SDS011;17476;48.458;7.928;2023-03-01T04:48:05;0.50;;;0.50;;
30729;SDS011;17476;48.458;7.928;2023-03-01T04:50:31;0.30;;;0.30;;
30729;SDS011;17476;48.458;7.928;2023-03-01T04:52:58;0.30;;;0.30;;
30729;SDS011;17476;48.458;7.928;2023-03-01T04:55:24;0.33;;;0.33;;
30729;SDS011;17476;48.458;7.928;2023-03-01T04:57:52;0.40;;;0.40;;
30729;SDS011;17476;48.458;7.928;2023-03-01T05:00:19;0.30;;;0.30;;
30729;SDS011;17476;48.458;7.928;2023-03-01T05:02:53;0.40;;;0.40;;
30729;SDS011;17476;48.458;7.928;2023-03-01T05:05:26;0.40;;;0.40;;
30729;SDS011;17476;48.458;7.928;2023-03-01T05:07:56;0.30;;;0.30;;
30729;SDS011;17476;48.458;7.928;2023-03-01T05:10:25;0.40;;;0.40;;
30729;SDS011;17476;48.458;7.928;2023-03-01T05:12:54;0.40;;;0.40;;
30729;SDS011;17476;48.458;7.928;2023-03-01T05:15:22;0.40;;;0.40;;
30729;SDS011;17476;48.458;7.928;2023-03-01T05:17:53;0.40;;;0.40;;
30729;SDS011;17476;48.458;7.928;2023-03-01T05:20:21;0.30;;;0.30;;
30729;SDS011;17476;48.458;7.928;2023-03-01T05:22:50;0.30;;;0.30;;
30729;SDS011;17476;48.458;7.928;2023-03-01T05:25:17;0.30;;;0.30;;
30729;SDS011;17476;48.458;7.928;2023-03-01T05:27:43;0.33;;;0.33;;
30729;SDS011;17476;48.458;7.928;2023-03-01T05:30:09;0.30;;;0.30;;
30729;SDS011;17476;48.458;7.928;2023-03-01T05:32:39;0.40;;;0.40;;
30729;SDS011;17476;48.458;7.928;2023-03-01T05:35:08;0.50;;;0.50;;
30729;SDS011;17476;48.458;7.928;2023-03-01T05:37:39;0.40;;;0.40;;
30729;SDS011;17476;48.458;7.928;2023-03-01T05:40:10;0.30;;;0.30;;
30729;SDS011;17476;48.458;7.928;2023-03-01T05:42:44;0.30;;;0.30;;
30729;SDS011;17476;48.458;7.928;2023-03-01T05:45:13;0.30;;;0.30;;
30729;SDS011;17476;48.458;7.928;2023-03-01T05:47:41;0.30;;;0.30;;
30729;SDS011;17476;48.458;7.928;2023-03-01T05:50:18;0.30;;;0.30;;
30729;SDS011;17476;48.458;7.928;2023-03-01T05:55:28;0.30;;;0.30;;
30729;SDS011;17476;48.458;7.928;2023-03-01T05:57:55;0.37;;;0.37;;
30729;SDS011;17476;48.458;7.928;2023-03-01T06:00:24;0.40;;;0.40;;
30729;SDS011;17476;48.458;7.928;2023-03-01T06:02:50;0.30;;;0.30;;
30729;SDS011;17476;48.458;7.928;2023-03-01T06:05:17;0.23;;;0.23;;
30729;SDS011;17476;48.458;7.928;2023-03-01T06:07:43;0.30;;;0.30;;
30729;SDS011;17476;48.458;7.928;2023-03-01T06:10:09;0.40;;;0.40;;
30729;SDS011;17476;48.458;7.928;2023-03-01T06:12:37;0.40;;;0.40;;
30729;SDS011;17476;48.458;7.928;2023-03-01T06:15:05;0.43;;;0.43;;
30729;SDS011;17476;48.458;7.928;2023-03-01T06:17:35;0.40;;;0.40;;
30729;SDS011;17476;48.458;7.928;2023-03-01T06:20:09;0.40;;;0.40;;
30729;SDS011;17476;48.458;7.928;2023-03-01T06:22:41;0.40;;;0.40;;
30729;SDS011;17476;48.458;7.928;2023-03-01T06:25:10;0.40;;;0.40;;
30729;SDS011;17476;48.458;7.928;2023-03-01T06:27:38;0.40;;;0.40;;
30729;SDS011;17476;48.458;7.928;2023-03-01T06:30:05;0.40;;;0.40;;
30729;SDS011;17476;48.458;7.928;2023-03-01T06:32:32;0.30;;;0.30;;
30729;SDS011;17476;48.458;7.928;2023-03-01T06:34:58;0.40;;;0.40;;
30729;SDS011;17476;48.458;7.928;2023-03-01T06:37:25;0.30;;;0.30;;
30729;SDS011;17476;48.458;7.928;2023-03-01T06:39:51;0.30;;;0.30;;
30729;SDS011;17476;48.458;7.928;2023-03-01T06:42:17;0.40;;;0.40;;
30729;SDS011;17476;48.458;7.928;2023-03-01T06:44:43;0.20;;;0.20;;
30729;SDS011;17476;48.458;7.928;2023-03-01T06:47:10;0.33;;;0.33;;
30729;SDS011;17476;48.458;7.928;2023-03-01T06:49:36;0.40;;;0.40;;
30729;SDS011;17476;48.458;7.928;2023-03-01T06:52:02;0.40;;;0.40;;
30729;SDS011;17476;48.458;7.928;2023-03-01T06:54:28;0.30;;;0.30;;
30729;SDS011;17476;48.458;7.928;2023-03-01T06:56:54;0.30;;;0.30;;
30729;SDS011;17476;48.458;7.928;2023-03-01T06:59:20;0.37;;;0.37;;
30729;SDS011;17476;48.458;7.928;2023-03-01T07:01:46;0.43;;;0.43;;
30729;SDS011;17476;48.458;7.928;2023-03-01T07:04:12;0.30;;;0.30;;
30729;SDS011;17476;48.458;7.928;2023-03-01T07:06:39;0.37;;;0.37;;
30729;SDS011;17476;48.458;7.928;2023-03-01T07:09:04;0.30;;;0.30;;
30729;SDS011;17476;48.458;7.928;2023-03-01T07:11:30;0.40;;;0.40;;
30729;SDS011;17476;48.458;7.928;2023-03-01T07:13:56;0.40;;;0.40;;
30729;SDS011;17476;48.458;7.928;2023-03-01T07:16:23;0.33;;;0.33;;
30729;SDS011;17476;48.458;7.928;2023-03-01T07:18:49;0.30;;;0.30;;
30729;SDS011;17476;48.458;7.928;2023-03-01T07:21:15;0.40;;;0.40;;
30729;SDS011;17476;48.458;7.928;2023-03-01T07:23:41;0.40;;;0.40;;
30729;SDS011;17476;48.458;7.928;2023-03-01T07:26:07;0.20;;;0.20;;
30729;SDS011;17476;48.458;7.928;2023-03-01T07:28:33;0.40;;;0.40;;
30729;SDS011;17476;48.458;7.928;2023-03-01T07:31:04;0.33;;;0.33;;
30729;SDS011;17476;48.458;7.928;2023-03-01T07:33:31;0.30;;;0.30;;
30729;SDS011;17476;48.458;7.928;2023-03-01T07:35:58;0.30;;;0.30;;
30729;SDS011;17476;48.458;7.928;2023-03-01T07:38:27;0.30;;;0.30;;
30729;SDS011;17476;48.458;7.928;2023-03-01T07:40:56;0.40;;;0.40;;
30729;SDS011;17476;48.458;7.928;2023-03-01T07:43:24;0.20;;;0.20;;
30729;SDS011;17476;48.458;7.928;2023-03-01T07:45:50;0.30;;;0.30;;
30729;SDS011;17476;48.458;7.928;2023-03-01T07:48:16;0.30;;;0.30;;
30729;SDS011;17476;48.458;7.928;2023-03-01T07:50:42;0.30;;;0.30;;
30729;SDS011;17476;48.458;7.928;2023-03-01T07:53:08;0.40;;;0.40;;
30729;SDS011;17476;48.458;7.928;2023-03-01T07:55:35;0.40;;;0.40;;
30729;SDS011;17476;48.458;7.928;2023-03-01T07:58:01;0.30;;;0.30;;
30729;SDS011;17476;48.458;7.928;2023-03-01T08:00:28;0.30;;;0.30;;
30729;SDS011;17476;48.458;7.928;2023-03-01T08:02:53;0.40;;;0.40;;
30729;SDS011;17476;48.458;7.928;2023-03-01T08:05:19;0.40;;;0.40;;
30729;SDS011;17476;48.458;7.928;2023-03-01T08:07:47;0.50;;;0.50;;
30729;SDS011;17476;48.458;7.928;2023-03-01T08:10:13;0.20;;;0.20;;
30729;SDS011;17476;48.458;7.928;2023-03-01T08:12:39;0.40;;;0.40;;
30729;SDS011;17476;48.458;7.928;2023-03-01T08:15:05;0.30;;;0.30;;
30729;SDS011;17476;48.458;7.928;2023-03-01T08:17:31;0.30;;;0.30;;
30729;SDS011;17476;48.458;7.928;2023-03-01T08:19:57;0.33;;;0.33;;
30729;SDS011;17476;48.458;7.928;2023-03-01T08:22:23;0.30;;;0.30;;
30729;SDS011;17476;48.458;7.928;2023-03-01T08:24:49;0.30;;;0.30;;
30729;SDS011;17476;48.458;7.928;2023-03-01T08:27:15;0.30;;;0.30;;
30729;SDS011;17476;48.458;7.928;2023-03-01T08:29:42;0.40;;;0.40;;
30729;SDS011;17476;48.458;7.928;2023-03-01T08:32:07;0.33;;;0.33;;
30729;SDS011;17476;48.458;7.928;2023-03-01T08:34:33;0.30;;;0.30;;
30729;SDS011;17476;48.458;7.928;2023-03-01T08:37:00;0.40;;;0.40;;
30729;SDS011;17476;48.458;7.928;2023-03-01T08:39:26;0.40;;;0.40;;
30729;SDS011;17476;48.458;7.928;2023-03-01T08:41:52;0.30;;;0.30;;
30729;SDS011;17476;48.458;7.928;2023-03-01T08:44:18;0.40;;;0.40;;
30729;SDS011;17476;48.458;7.928;2023-03-01T08:46:46;0.40;;;0.40;;
30729;SDS011;17476;48.458;7.928;2023-03-01T08:49:16;0.40;;;0.40;;
30729;SDS011;17476;48.458;7.928;2023-03-01T08:51:44;0.40;;;0.40;;
30729;SDS011;17476;48.458;7.928;2023-03-01T08:54:15;0.40;;;0.40;;
30729;SDS011;17476;48.458;7.928;2023-03-01T08:56:47;0.30;;;0.30;;
30729;SDS011;17476;48.458;7.928;2023-03-01T08:59:15;0.40;;;0.40;;
30729;SDS011;17476;48.458;7.928;2023-03-01T09:01:42;0.40;;;0.40;;
30729;SDS011;17476;48.458;7.928;2023-03-01T09:04:08;0.30;;;0.30;;
30729;SDS011;17476;48.458;7.928;2023-03-01T09:06:35;0.40;;;0.40;;
30729;SDS011;17476;48.458;7.928;2023-03-01T09:09:02;0.30;;;0.30;;
30729;SDS011;17476;48.458;7.928;2023-03-01T09:11:30;0.30;;;0.30;;
30729;SDS011;17476;48.458;7.928;2023-03-01T09:13:56;0.30;;;0.30;;
30729;SDS011;17476;48.458;7.928;2023-03-01T09:16:23;0.30;;;0.30;;
30729;SDS011;17476;48.458;7.928;2023-03-01T09:18:52;0.30;;;0.30;;
30729;SDS011;17476;48.458;7.928;2023-03-01T09:21:20;0.33;;;0.33;;
30729;SDS011;17476;48.458;7.928;2023-03-01T09:23:48;0.30;;;0.30;;
30729;SDS011;17476;48.458;7.928;2023-03-01T09:26:15;0.30;;;0.30;;
30729;SDS011;17476;48.458;7.928;2023-03-01T09:28:44;0.30;;;0.30;;
30729;SDS011;17476;48.458;7.928;2023-03-01T09:31:11;0.30;;;0.30;;
30729;SDS011;17476;48.458;7.928;2023-03-01T09:33:39;0.30;;;0.30;;
30729;SDS011;17476;48.458;7.928;2023-03-01T09:36:07;0.30;;;0.30;;
30729;SDS011;17476;48.458;7.928;2023-03-01T09:38:39;0.40;;;0.40;;
30729;SDS011;17476;48.458;7.928;2023-03-01T09:41:26;0.30;;;0.30;;
30729;SDS011;17476;48.458;7.928;2023-03-01T09:44:20;0.20;;;0.20;;
30729;SDS011;17476;48.458;7.928;2023-03-01T09:46:58;0.20;;;0.20;;
30729;SDS011;17476;48.458;7.928;2023-03-01T09:49:26;0.30;;;0.30;;
30729;SDS011;17476;48.458;7.928;2023-03-01T09:54:28;0.30;;;0.30;;
30729;SDS011;17476;48.458;7.928;2023-03-01T09:57:12;0.20;;;0.20;;
30729;SDS011;17476;48.458;7.928;2023-03-01T10:03:00;0.20;;;0.20;;
30729;SDS011;17476;48.458;7.928;2023-03-01T10:11:21;0.20;;;0.20;;
30729;SDS011;17476;48.458;7.928;2023-03-01T10:16:48;0.27;;;0.27;;
30729;SDS011;17476;48.458;7.928;2023-03-01T10:19:32;0.30;;;0.30;;
30729;SDS011;17476;48.458;7.928;2023-03-01T10:22:21;0.10;;;0.10;;
30729;SDS011;17476;48.458;7.928;2023-03-01T10:24:59;0.30;;;0.30;;
30729;SDS011;17476;48.458;7.928;2023-03-01T10:27:40;0.20;;;0.20;;
30729;SDS011;17476;48.458;7.928;2023-03-01T10:30:36;0.10;;;0.10;;
30729;SDS011;17476;48.458;7.928;2023-03-01T10:33:17;0.10;;;0.10;;
30729;SDS011;17476;48.458;7.928;2023-03-01T10:35:51;0.20;;;0.20;;
30729;SDS011;17476;48.458;7.928;2023-03-01T10:38:18;0.20;;;0.20;;
30729;SDS011;17476;48.458;7.928;2023-03-01T10:40:56;0.13;;;0.13;;
30729;SDS011;17476;48.458;7.928;2023-03-01T10:43:43;0.27;;;0.27;;
30729;SDS011;17476;48.458;7.928;2023-03-01T10:46:32;0.10;;;0.10;;
30729;SDS011;17476;48.458;7.928;2023-03-01T10:49:10;0.10;;;0.10;;
30729;SDS011;17476;48.458;7.928;2023-03-01T10:51:44;0.10;;;0.10;;
30729;SDS011;17476;48.458;7.928;2023-03-01T10:54:17;0.10;;;0.10;;
30729;SDS011;17476;48.458;7.928;2023-03-01T10:56:59;0.10;;;0.10;;
30729;SDS011;17476;48.458;7.928;2023-03-01T11:05:00;0.10;;;0.10;;
30729;SDS011;17476;48.458;7.928;2023-03-01T11:07:54;0.10;;;0.10;;
30729;SDS011;17476;48.458;7.928;2023-03-01T11:10:23;0.20;;;0.20;;
30729;SDS011;17476;48.458;7.928;2023-03-01T11:15:41;0.00;;;0.00;;
30729;SDS011;17476;48.458;7.928;2023-03-01T11:18:20;0.10;;;0.10;;
30729;SDS011;17476;48.458;7.928;2023-03-01T11:20:48;0.20;;;0.20;;
30729;SDS011;17476;48.458;7.928;2023-03-01T11:23:17;0.10;;;0.10;;
30729;SDS011;17476;48.458;7.928;2023-03-01T11:25:53;0.13;;;0.13;;
30729;SDS011;17476;48.458;7.928;2023-03-01T11:28:23;0.10;;;0.10;;
30729;SDS011;17476;48.458;7.928;2023-03-01T11:30:57;0.10;;;0.10;;
30729;SDS011;17476;48.458;7.928;2023-03-01T11:33:46;0.07;;;0.07;;
30729;SDS011;17476;48.458;7.928;2023-03-01T11:36:47;0.10;;;0.10;;
30729;SDS011;17476;48.458;7.928;2023-03-01T11:42:10;0.10;;;0.10;;
30729;SDS011;17476;48.458;7.928;2023-03-01T11:44:46;0.10;;;0.10;;
30729;SDS011;17476;48.458;7.928;2023-03-01T11:47:22;0.10;;;0.10;;
30729;SDS011;17476;48.458;7.928;2023-03-01T11:52:57;0.20;;;0.20;;
30729;SDS011;17476;48.458;7.928;2023-03-01T12:05:37;0.10;;;0.10;;
30729;SDS011;17476;48.458;7.928;2023-03-01T12:08:41;0.10;;;0.10;;
30729;SDS011;17476;48.458;7.928;2023-03-01T12:11:29;0.00;;;0.00;;
30729;SDS011;17476;48.458;7.928;2023-03-01T12:20:18;0.00;;;0.00;;
30729;SDS011;17476;48.458;7.928;2023-03-01T12:26:21;0.10;;;0.10;;
30729;SDS011;17476;48.458;7.928;2023-03-01T12:29:16;0.00;;;0.00;;
30729;SDS011;17476;48.458;7.928;2023-03-01T12:32:31;0.00;;;0.00;;
30729;SDS011;17476;48.458;7.928;2023-03-01T12:47:03;0.10;;;0.10;;
30729;SDS011;17476;48.458;7.928;2023-03-01T12:49:45;0.10;;;0.10;;
30729;SDS011;17476;48.458;7.928;2023-03-01T12:52:51;0.10;;;0.10;;
30729;SDS011;17476;48.458;7.928;2023-03-01T12:55:37;0.10;;;0.10;;
30729;SDS011;17476;48.458;7.928;2023-03-01T12:58:12;0.00;;;0.00;;
30729;SDS011;17476;48.458;7.928;2023-03-01T13:09:05;0.10;;;0.10;;
30729;SDS011;17476;48.458;7.928;2023-03-01T13:11:48;0.00;;;0.00;;
30729;SDS011;17476;48.458;7.928;2023-03-01T13:16:45;0.10;;;0.10;;
30729;SDS011;17476;48.458;7.928;2023-03-01T13:21:46;0.10;;;0.10;;
30729;SDS011;17476;48.458;7.928;2023-03-01T13:24:24;0.10;;;0.10;;
30729;SDS011;17476;48.458;7.928;2023-03-01T13:32:31;0.10;;;0.10;;
30729;SDS011;17476;48.458;7.928;2023-03-01T13:37:44;0.10;;;0.10;;
30729;SDS011;17476;48.458;7.928;2023-03-01T13:42:47;0.10;;;0.10;;
30729;SDS011;17476;48.458;7.928;2023-03-01T13:45:39;0.10;;;0.10;;
30729;SDS011;17476;48.458;7.928;2023-03-01T13:48:09;0.00;;;0.00;;
30729;SDS011;17476;48.458;7.928;2023-03-01T13:50:47;0.10;;;0.10;;
30729;SDS011;17476;48.458;7.928;2023-03-01T13:53:18;0.10;;;0.10;;
30729;SDS011;17476;48.458;7.928;2023-03-01T13:55:54;0.10;;;0.10;;
30729;SDS011;17476;48.458;7.928;2023-03-01T13:58:32;0.07;;;0.07;;
30729;SDS011;17476;48.458;7.928;2023-03-01T14:01:21;0.10;;;0.10;;
30729;SDS011;17476;48.458;7.928;2023-03-01T14:03:58;0.10;;;0.10;;
30729;SDS011;17476;48.458;7.928;2023-03-01T14:06:30;0.00;;;0.00;;
30729;SDS011;17476;48.458;7.928;2023-03-01T14:09:12;0.10;;;0.10;;
30729;SDS011;17476;48.458;7.928;2023-03-01T14:20:40;0.10;;;0.10;;
30729;SDS011;17476;48.458;7.928;2023-03-01T14:23:14;0.10;;;0.10;;
30729;SDS011;17476;48.458;7.928;2023-03-01T14:25:47;0.10;;;0.10;;
30729;SDS011;17476;48.458;7.928;2023-03-01T14:28:19;0.10;;;0.10;;
30729;SDS011;17476;48.458;7.928;2023-03-01T14:30:56;0.10;;;0.10;;
30729;SDS011;17476;48.458;7.928;2023-03-01T14:33:25;0.10;;;0.10;;
30729;SDS011;17476;48.458;7.928;2023-03-01T14:36:05;0.00;;;0.00;;
30729;SDS011;17476;48.458;7.928;2023-03-01T14:38:44;0.00;;;0.00;;
30729;SDS011;17476;48.458;7.928;2023-03-01T14:41:13;0.10;;;0.10;;
30729;SDS011;17476;48.458;7.928;2023-03-01T14:43:46;0.10;;;0.10;;
30729;SDS011;17476;48.458;7.928;2023-03-01T14:46:26;0.00;;;0.00;;
30729;SDS011;17476;48.458;7.928;2023-03-01T14:49:04;0.10;;;0.10;;
30729;SDS011;17476;48.458;7.928;2023-03-01T14:51:35;0.13;;;0.13;;
30729;SDS011;17476;48.458;7.928;2023-03-01T14:54:05;0.00;;;0.00;;
30729;SDS011;17476;48.458;7.928;2023-03-01T14:56:48;0.10;;;0.10;;
30729;SDS011;17476;48.458;7.928;2023-03-01T14:59:20;0.10;;;0.10;;
30729;SDS011;17476;48.458;7.928;2023-03-01T15:01:49;0.00;;;0.00;;
30729;SDS011;17476;48.458;7.928;2023-03-01T15:04:18;0.10;;;0.10;;
30729;SDS011;17476;48.458;7.928;2023-03-01T15:06:46;0.10;;;0.10;;
30729;SDS011;17476;48.458;7.928;2023-03-01T15:09:16;0.10;;;0.10;;
30729;SDS011;17476;48.458;7.928;2023-03-01T15:11:43;0.20;;;0.20;;
30729;SDS011;17476;48.458;7.928;2023-03-01T15:17:26;0.20;;;0.20;;
30729;SDS011;17476;48.458;7.928;2023-03-01T15:19:59;0.10;;;0.10;;
30729;SDS011;17476;48.458;7.928;2023-03-01T15:22:29;0.17;;;0.17;;
30729;SDS011;17476;48.458;7.928;2023-03-01T15:24:55;0.10;;;0.10;;
30729;SDS011;17476;48.458;7.928;2023-03-01T15:27:24;0.10;;;0.10;;
30729;SDS011;17476;48.458;7.928;2023-03-01T15:29:53;0.10;;;0.10;;
30729;SDS011;17476;48.458;7.928;2023-03-01T15:32:32;0.10;;;0.10;;
30729;SDS011;17476;48.458;7.928;2023-03-01T15:41:03;0.17;;;0.17;;
30729;SDS011;17476;48.458;7.928;2023-03-01T15:43:46;0.20;;;0.20;;
30729;SDS011;17476;48.458;7.928;2023-03-01T15:48:52;0.10;;;0.10;;
30729;SDS011;17476;48.458;7.928;2023-03-01T15:51:22;0.20;;;0.20;;
30729;SDS011;17476;48.458;7.928;2023-03-01T15:53:59;0.10;;;0.10;;
30729;SDS011;17476;48.458;7.928;2023-03-01T15:56:28;0.10;;;0.10;;
30729;SDS011;17476;48.458;7.928;2023-03-01T15:58:58;0.10;;;0.10;;
30729;SDS011;17476;48.458;7.928;2023-03-01T16:01:27;0.10;;;0.10;;
30729;SDS011;17476;48.458;7.928;2023-03-01T16:03:53;0.10;;;0.10;;
30729;SDS011;17476;48.458;7.928;2023-03-01T16:06:19;0.20;;;0.20;;
30729;SDS011;17476;48.458;7.928;2023-03-01T16:08:45;0.20;;;0.20;;
30729;SDS011;17476;48.458;7.928;2023-03-01T16:11:13;0.10;;;0.10;;
30729;SDS011;17476;48.458;7.928;2023-03-01T16:13:43;0.10;;;0.10;;
30729;SDS011;17476;48.458;7.928;2023-03-01T16:16:11;0.20;;;0.20;;
30729;SDS011;17476;48.458;7.928;2023-03-01T16:18:41;0.10;;;0.10;;
30729;SDS011;17476;48.458;7.928;2023-03-01T16:21:11;0.10;;;0.10;;
30729;SDS011;17476;48.458;7.928;2023-03-01T16:23:41;0.20;;;0.20;;
30729;SDS011;17476;48.458;7.928;2023-03-01T16:26:09;0.10;;;0.10;;
30729;SDS011;17476;48.458;7.928;2023-03-01T16:28:35;0.10;;;0.10;;
30729;SDS011;17476;48.458;7.928;2023-03-01T16:31:01;0.27;;;0.27;;
30729;SDS011;17476;48.458;7.928;2023-03-01T16:33:27;0.20;;;0.20;;
30729;SDS011;17476;48.458;7.928;2023-03-01T16:35:53;0.20;;;0.20;;
30729;SDS011;17476;48.458;7.928;2023-03-01T16:38:19;0.20;;;0.20;;
30729;SDS011;17476;48.458;7.928;2023-03-01T16:40:48;0.10;;;0.10;;
30729;SDS011;17476;48.458;7.928;2023-03-01T16:43:16;0.20;;;0.20;;
30729;SDS011;17476;48.458;7.928;2023-03-01T16:45:42;0.20;;;0.20;;
30729;SDS011;17476;48.458;7.928;2023-03-01T16:48:10;0.20;;;0.20;;
30729;SDS011;17476;48.458;7.928;2023-03-01T16:50:36;0.20;;;0.20;;
30729;SDS011;17476;48.458;7.928;2023-03-01T16:53:02;0.20;;;0.20;;
30729;SDS011;17476;48.458;7.928;2023-03-01T16:55:28;0.20;;;0.20;;
30729;SDS011;17476;48.458;7.928;2023-03-01T16:57:54;0.20;;;0.20;;
30729;SDS011;17476;48.458;7.928;2023-03-01T17:00:20;0.30;;;0.30;;
30729;SDS011;17476;48.458;7.928;2023-03-01T17:02:47;0.27;;;0.27;;
30729;SDS011;17476;48.458;7.928;2023-03-01T17:05:13;0.20;;;0.20;;
30729;SDS011;17476;48.458;7.928;2023-03-01T17:07:39;0.30;;;0.30;;
30729;SDS011;17476;48.458;7.928;2023-03-01T17:10:06;0.30;;;0.30;;
30729;SDS011;17476;48.458;7.928;2023-03-01T17:12:35;0.30;;;0.30;;
30729;SDS011;17476;48.458;7.928;2023-03-01T17:15:02;0.23;;;0.23;;